createdAt,value
2023-05-10T00:00:19.904Z,8.10
2023-05-10T00:03:23.919Z,8.17
2023-05-10T00:06:27.988Z,8.26
2023-05-10T00:09:32.953Z,8.25
2023-05-10T00:12:36.390Z,8.18
2023-05-10T00:15:39.759Z,8.21
2023-05-10T00:18:43.363Z,8.14
2023-05-10T00:21:46.954Z,8.11
2023-05-10T00:24:51.800Z,8.06
2023-05-10T00:27:56.276Z,7.96
2023-05-10T00:31:00.017Z,8.04
2023-05-10T00:34:03.814Z,8.04
2023-05-10T00:37:07.788Z,7.99
2023-05-10T00:40:14.027Z,8.03
2023-05-10T00:43:20.227Z,8.00
2023-05-10T00:46:25.571Z,7.83
2023-05-10T00:49:30.872Z,7.91
2023-05-10T00:52:34.621Z,7.78
2023-05-10T00:55:39.901Z,7.67
2023-05-10T00:58:44.095Z,7.62
2023-05-10T01:01:48.957Z,7.65
2023-05-10T01:04:56.592Z,7.51
2023-05-10T01:08:01.016Z,7.48
2023-05-10T01:11:06.498Z,7.22
2023-05-10T01:14:11.849Z,7.14
2023-05-10T01:17:16.474Z,7.19
2023-05-10T01:20:20.364Z,7.21
2023-05-10T01:23:46.360Z,7.10
2023-05-10T01:27:17.065Z,7.01
2023-05-10T01:30:58.221Z,6.85
2023-05-10T01:34:11.897Z,6.84
2023-05-10T01:37:22.772Z,6.83
2023-05-10T01:40:32.943Z,6.80
2023-05-10T01:43:45.336Z,6.77
2023-05-10T01:46:55.684Z,6.67
2023-05-10T01:50:05.449Z,6.63
2023-05-10T01:53:12.208Z,6.70
2023-05-10T01:56:17.863Z,6.65
2023-05-10T01:59:23.985Z,6.56
2023-05-10T02:02:29.985Z,6.52
2023-05-10T02:05:37.125Z,6.43
2023-05-10T02:08:42.571Z,6.42
2023-05-10T02:11:46.753Z,6.29
2023-05-10T02:14:50.410Z,6.42
2023-05-10T02:17:57.108Z,6.35
2023-05-10T02:21:03.743Z,6.31
2023-05-10T02:24:11.097Z,6.17
2023-05-10T02:27:16.683Z,6.29
2023-05-10T02:30:21.582Z,6.17
2023-05-10T02:33:27.402Z,6.19
2023-05-10T02:36:33.258Z,6.11
2023-05-10T02:39:37.630Z,6.12
2023-05-10T02:42:44.712Z,6.13
2023-05-10T02:45:50.472Z,6.07
2023-05-10T02:48:54.228Z,6.00
2023-05-10T02:52:03.368Z,6.01
2023-05-10T02:55:09.272Z,5.98
2023-05-10T02:58:13.903Z,6.02
2023-05-10T03:01:17.624Z,5.93
2023-05-10T03:04:21.736Z,6.04
2023-05-10T03:07:27.085Z,6.02
2023-05-10T03:10:33.476Z,6.08
2023-05-10T03:13:46.416Z,5.83
2023-05-10T03:17:02.831Z,5.99
2023-05-10T03:20:11.460Z,6.02
2023-05-10T03:23:28.626Z,6.00
2023-05-10T03:26:32.973Z,5.97
2023-05-10T03:29:46.276Z,6.10
2023-05-10T03:32:50.468Z,6.01
2023-05-10T03:35:54.974Z,6.03
2023-05-10T03:38:59.992Z,6.10
2023-05-10T03:42:04.075Z,6.11
2023-05-10T03:45:09.506Z,6.09
2023-05-10T03:48:14.833Z,6.16
2023-05-10T03:51:19.818Z,6.18
2023-05-10T03:54:24.818Z,6.14
2023-05-10T03:57:28.512Z,6.21
2023-05-10T04:00:33.199Z,6.26
2023-05-10T04:03:38.039Z,6.33
2023-05-10T04:06:42.651Z,6.50
2023-05-10T04:09:47.493Z,6.55
2023-05-10T04:12:50.962Z,6.63
2023-05-10T04:15:54.713Z,6.83
2023-05-10T04:18:58.571Z,6.79
2023-05-10T04:22:02.247Z,6.90
2023-05-10T04:25:09.020Z,6.98
2023-05-10T04:28:12.902Z,7.04
2023-05-10T04:31:16.331Z,7.09
2023-05-10T04:34:19.872Z,7.15
2023-05-10T04:37:24.105Z,7.24
2023-05-10T04:40:29.187Z,7.43
2023-05-10T04:43:32.621Z,7.55
2023-05-10T04:46:36.337Z,7.53
2023-05-10T04:49:39.800Z,7.61
2023-05-10T04:52:43.381Z,7.75
2023-05-10T04:55:49.180Z,7.85
2023-05-10T04:58:52.823Z,8.08
2023-05-10T05:01:56.470Z,8.18
2023-05-10T05:05:00.393Z,8.23
2023-05-10T05:08:04.463Z,8.57
2023-05-10T05:11:09.390Z,8.71
2023-05-10T05:14:13.037Z,8.85
2023-05-10T05:17:16.646Z,9.11
2023-05-10T05:20:20.145Z,9.33
2023-05-10T05:23:25.875Z,9.57
2023-05-10T05:26:31.040Z,9.69
2023-05-10T05:29:34.993Z,9.92
2023-05-10T05:32:38.526Z,10.06
2023-05-10T05:35:42.375Z,9.87
2023-05-10T05:38:46.158Z,10.20
2023-05-10T05:41:51.079Z,10.33
2023-05-10T05:44:54.745Z,10.74
2023-05-10T05:47:58.266Z,10.86
2023-05-10T05:51:01.793Z,11.12
2023-05-10T05:54:05.773Z,11.13
2023-05-10T05:57:11.303Z,11.25
2023-05-10T06:00:15.861Z,11.37
2023-05-10T06:03:19.296Z,11.68
2023-05-10T06:06:23.076Z,11.60
2023-05-10T06:09:26.465Z,11.98
2023-05-10T06:12:31.287Z,11.89
2023-05-10T06:15:34.864Z,12.18
2023-05-10T06:18:38.822Z,12.54
2023-05-10T06:21:42.300Z,12.86
2023-05-10T06:24:45.779Z,13.20
2023-05-10T06:27:53.754Z,13.20
2023-05-10T06:30:57.435Z,13.18
2023-05-10T06:34:00.932Z,13.34
2023-05-10T06:37:04.623Z,13.39
2023-05-10T06:40:10.463Z,13.30
2023-05-10T06:43:15.385Z,13.58
2023-05-10T06:46:18.929Z,14.26
2023-05-10T06:49:22.693Z,14.31
2023-05-10T06:52:26.190Z,14.31
2023-05-10T06:55:30.344Z,14.57
2023-05-10T06:58:35.216Z,14.43
2023-05-10T07:01:38.907Z,14.40
2023-05-10T07:04:42.615Z,14.93
2023-05-10T07:07:45.982Z,14.89
2023-05-10T07:10:49.602Z,14.93
2023-05-10T07:13:54.619Z,14.99
2023-05-10T07:16:58.084Z,15.24
2023-05-10T07:20:02.669Z,15.15
2023-05-10T07:23:06.138Z,15.41
2023-05-10T07:26:10.621Z,15.34
2023-05-10T07:29:15.514Z,15.60
2023-05-10T07:32:19.182Z,15.91
2023-05-10T07:35:23.323Z,15.92
2023-05-10T07:38:26.839Z,16.42
2023-05-10T07:41:31.083Z,16.30
2023-05-10T07:44:35.846Z,16.03
2023-05-10T07:47:39.300Z,16.44
2023-05-10T07:50:42.783Z,16.34
2023-05-10T07:53:47.326Z,16.75
2023-05-10T07:56:50.913Z,16.89
2023-05-10T07:59:56.027Z,16.78
2023-05-10T08:02:59.900Z,16.85
2023-05-10T08:06:03.475Z,17.18
2023-05-10T08:09:07.038Z,16.81
2023-05-10T08:12:10.530Z,17.15
2023-05-10T08:15:15.709Z,16.91
2023-05-10T08:18:21.787Z,16.84
2023-05-10T08:21:25.611Z,17.53
2023-05-10T08:24:29.111Z,16.95
2023-05-10T08:27:32.572Z,17.10
2023-05-10T08:30:37.318Z,17.42
2023-05-10T08:33:42.137Z,17.53
2023-05-10T08:36:46.832Z,17.63
2023-05-10T08:39:50.456Z,17.20
2023-05-10T08:43:00.698Z,17.46
2023-05-10T08:46:07.863Z,17.59
2023-05-10T08:49:13.605Z,17.49
2023-05-10T08:52:19.712Z,18.26
2023-05-10T08:55:24.448Z,18.30
2023-05-10T08:58:28.056Z,18.65
2023-05-10T09:01:34.153Z,18.17
2023-05-10T09:04:38.155Z,18.22
2023-05-10T09:07:41.687Z,18.32
2023-05-10T09:10:48.273Z,17.58
2023-05-10T09:13:53.523Z,17.85
2023-05-10T09:16:59.095Z,17.75
2023-05-10T09:20:05.246Z,17.63
2023-05-10T09:23:08.857Z,18.26
2023-05-10T09:26:12.776Z,17.40
2023-05-10T09:29:17.685Z,17.48
2023-05-10T09:32:23.057Z,17.41
2023-05-10T09:35:29.609Z,16.82
2023-05-10T09:38:48.096Z,16.79
2023-05-10T09:41:51.888Z,17.03
2023-05-10T09:44:55.431Z,17.58
2023-05-10T09:48:02.866Z,17.31
2023-05-10T09:51:06.699Z,17.66
2023-05-10T09:54:14.483Z,18.01
2023-05-10T09:57:23.183Z,17.72
2023-05-10T10:00:26.571Z,18.10
2023-05-10T10:03:32.284Z,17.89
2023-05-10T10:06:39.976Z,17.75
2023-05-10T10:09:43.521Z,18.92
2023-05-10T10:12:47.137Z,18.05
2023-05-10T10:15:52.423Z,18.67
2023-05-10T10:18:58.064Z,18.24
2023-05-10T10:22:02.930Z,19.04
2023-05-10T10:25:07.729Z,20.09
2023-05-10T10:28:28.240Z,19.45
2023-05-10T10:31:41.428Z,19.15
2023-05-10T10:34:46.856Z,18.05
2023-05-10T10:37:53.100Z,18.73
2023-05-10T10:41:05.057Z,20.06
2023-05-10T10:44:30.440Z,19.77
2023-05-10T10:47:34.552Z,19.31
2023-05-10T10:50:47.920Z,18.65
2023-05-10T10:53:51.420Z,18.53
2023-05-10T10:57:13.257Z,18.65
2023-05-10T11:00:31.977Z,18.25
2023-05-10T11:03:35.852Z,18.48
2023-05-10T11:06:41.356Z,18.50
2023-05-10T11:09:45.019Z,18.49
2023-05-10T11:12:56.715Z,18.57
2023-05-10T11:16:01.977Z,18.40
2023-05-10T11:19:07.023Z,17.95
2023-05-10T11:22:19.348Z,18.55
2023-05-10T11:25:28.561Z,19.03
2023-05-10T11:28:32.630Z,19.59
2023-05-10T11:31:37.137Z,19.68
2023-05-10T11:34:41.449Z,20.01
2023-05-10T11:37:50.660Z,19.86
2023-05-10T11:40:55.638Z,20.39
2023-05-10T11:44:00.273Z,20.68
2023-05-10T11:47:04.699Z,21.22
2023-05-10T11:50:09.241Z,21.17
2023-05-10T11:53:15.710Z,21.53
2023-05-10T11:56:19.550Z,21.26
2023-05-10T11:59:22.922Z,20.93
2023-05-10T12:02:26.837Z,20.39
2023-05-10T12:05:30.664Z,20.71
2023-05-10T12:08:35.837Z,21.74
2023-05-10T12:11:43.881Z,21.77
2023-05-10T12:14:52.722Z,22.43
2023-05-10T12:17:56.311Z,22.37
2023-05-10T12:21:06.527Z,21.58
2023-05-10T12:24:11.930Z,21.68
2023-05-10T12:27:15.865Z,20.96
2023-05-10T12:30:24.279Z,19.97
2023-05-10T12:33:27.805Z,19.70
2023-05-10T12:36:31.370Z,19.51
2023-05-10T12:39:47.238Z,19.54
2023-05-10T12:42:50.915Z,20.83
2023-05-10T12:45:54.522Z,21.30
2023-05-10T12:49:07.742Z,20.31
2023-05-10T12:52:12.518Z,19.99
2023-05-10T12:55:17.799Z,19.60
2023-05-10T13:01:31.377Z,19.09
2023-05-10T13:04:34.837Z,18.85
2023-05-10T13:07:38.316Z,19.78
2023-05-10T13:10:43.237Z,19.79
2023-05-10T13:13:47.171Z,20.49
2023-05-10T13:16:50.800Z,20.67
2023-05-10T13:19:54.517Z,20.09
2023-05-10T13:22:57.990Z,20.01
2023-05-10T13:26:03.106Z,19.74
2023-05-10T13:29:06.694Z,19.52
2023-05-10T13:32:10.300Z,19.40
2023-05-10T13:35:14.033Z,19.59
2023-05-10T13:38:17.456Z,20.50
2023-05-10T13:41:22.370Z,20.51
2023-05-10T13:44:26.261Z,20.87
2023-05-10T13:47:30.040Z,21.39
2023-05-10T13:50:33.855Z,21.65
2023-05-10T13:53:37.582Z,21.01
2023-05-10T13:56:45.133Z,20.34
2023-05-10T13:59:49.167Z,19.68
2023-05-10T14:02:52.839Z,20.31
2023-05-10T14:05:56.369Z,21.19
2023-05-10T14:09:00.213Z,21.45
2023-05-10T14:12:08.013Z,21.42
2023-05-10T14:15:12.749Z,20.94
2023-05-10T14:18:16.250Z,20.76
2023-05-10T14:21:19.940Z,19.85
2023-05-10T14:24:23.505Z,19.33
2023-05-10T14:27:28.617Z,19.53
2023-05-10T14:30:33.932Z,19.44
2023-05-10T14:33:38.445Z,19.28
2023-05-10T14:36:42.208Z,19.05
2023-05-10T14:39:45.658Z,19.11
2023-05-10T14:42:50.774Z,19.17
2023-05-10T14:45:54.463Z,20.60
2023-05-10T14:48:58.145Z,20.72
2023-05-10T14:52:01.783Z,20.91
2023-05-10T14:55:06.350Z,20.80
2023-05-10T14:58:11.222Z,21.16
2023-05-10T15:01:15.300Z,20.92
2023-05-10T15:04:19.513Z,20.99
2023-05-10T15:07:23.415Z,20.87
2023-05-10T15:10:26.984Z,21.06
2023-05-10T15:13:32.338Z,20.63
2023-05-10T15:16:36.370Z,21.00
2023-05-10T15:19:40.008Z,20.96
2023-05-10T15:22:43.566Z,20.74
2023-05-10T15:25:47.011Z,19.81
2023-05-10T15:28:52.800Z,20.08
2023-05-10T15:31:56.344Z,20.40
2023-05-10T15:35:00.483Z,20.31
2023-05-10T15:38:03.905Z,20.30
2023-05-10T15:41:07.444Z,19.59
2023-05-10T15:44:12.707Z,19.23
2023-05-10T15:47:16.509Z,19.83
2023-05-10T15:50:20.929Z,19.21
2023-05-10T15:53:24.699Z,19.26
2023-05-10T15:56:28.456Z,19.18
2023-05-10T15:59:35.982Z,19.43
2023-05-10T16:02:39.824Z,19.71
2023-05-10T16:05:43.796Z,19.32
2023-05-10T16:08:47.654Z,18.90
2023-05-10T16:11:52.902Z,18.57
2023-05-10T16:14:59.119Z,18.85
2023-05-10T16:18:02.949Z,18.59
2023-05-10T16:21:07.023Z,18.52
2023-05-10T16:24:10.658Z,18.66
2023-05-10T16:27:14.289Z,18.50
2023-05-10T16:33:23.330Z,18.64
2023-05-10T16:36:27.492Z,18.59
2023-05-10T16:39:31.519Z,18.56
2023-05-10T16:42:35.203Z,18.32
2023-05-10T16:45:40.426Z,18.11
2023-05-10T16:48:44.106Z,18.17
2023-05-10T16:51:48.208Z,18.11
2023-05-10T16:54:51.833Z,18.12
2023-05-10T16:57:59.768Z,18.06
2023-05-10T17:01:05.228Z,18.11
2023-05-10T17:04:08.935Z,18.05
2023-05-10T17:07:13.394Z,17.86
2023-05-10T17:10:17.534Z,17.80
2023-05-10T17:13:21.287Z,17.40
2023-05-10T17:16:27.174Z,17.38
2023-05-10T17:19:30.938Z,17.52
2023-05-10T17:22:34.807Z,17.20
2023-05-10T17:25:38.601Z,17.09
2023-05-10T17:28:42.267Z,17.11
2023-05-10T17:31:47.658Z,16.85
2023-05-10T17:34:51.991Z,16.94
2023-05-10T17:37:56.021Z,16.79
2023-05-10T17:40:59.625Z,16.65
2023-05-10T17:44:03.329Z,16.58
2023-05-10T17:47:08.778Z,16.49
2023-05-10T17:50:12.881Z,16.35
2023-05-10T17:53:16.728Z,16.26
2023-05-10T17:56:20.223Z,16.16
2023-05-10T17:59:24.423Z,16.08
2023-05-10T18:02:29.817Z,15.96
2023-05-10T18:05:37.380Z,15.82
2023-05-10T18:08:41.562Z,15.68
2023-05-10T18:11:45.457Z,15.45
2023-05-10T18:14:50.433Z,15.37
2023-05-10T18:17:56.044Z,15.31
2023-05-10T18:21:00.047Z,15.21
2023-05-10T18:24:03.595Z,15.25
2023-05-10T18:27:07.305Z,15.17
2023-05-10T18:30:12.599Z,15.08
2023-05-10T18:33:17.558Z,14.98
2023-05-10T18:36:21.576Z,15.04
2023-05-10T18:39:25.512Z,14.96
2023-05-10T18:42:29.030Z,14.83
2023-05-10T18:45:35.544Z,14.77
2023-05-10T18:48:40.813Z,14.70
2023-05-10T18:51:44.519Z,14.60
2023-05-10T18:54:47.940Z,14.49
2023-05-10T18:57:51.833Z,14.48
2023-05-10T19:00:58.932Z,14.52
2023-05-10T19:04:03.796Z,14.25
2023-05-10T19:07:07.350Z,14.16
2023-05-10T19:10:14.112Z,14.18
2023-05-10T19:13:17.696Z,14.05
2023-05-10T19:16:21.362Z,13.95
2023-05-10T19:19:26.351Z,14.00
2023-05-10T19:25:36.616Z,13.81
2023-05-10T19:28:40.407Z,13.79
2023-05-10T19:31:44.254Z,13.73
2023-05-10T19:34:49.140Z,13.74
2023-05-10T19:37:52.691Z,13.81
2023-05-10T19:40:58.361Z,13.72
2023-05-10T19:44:02.121Z,13.80
2023-05-10T19:47:05.862Z,13.80
2023-05-10T19:50:12.622Z,13.80
2023-05-10T19:53:16.586Z,13.78
2023-05-10T19:56:20.106Z,13.76
2023-05-10T19:59:23.659Z,13.72
2023-05-10T20:02:27.173Z,13.76
2023-05-10T20:05:32.060Z,13.70
2023-05-10T20:08:35.447Z,13.68
2023-05-10T20:11:39.018Z,13.62
2023-05-10T20:14:42.537Z,13.65
2023-05-10T20:17:46.417Z,13.65
2023-05-10T20:20:54.946Z,13.57
2023-05-10T20:23:58.416Z,13.45
2023-05-10T20:27:02.747Z,13.34
2023-05-10T20:30:07.488Z,13.25
2023-05-10T20:33:11.001Z,13.13
2023-05-10T20:36:16.304Z,12.99
2023-05-10T20:39:20.192Z,12.88
2023-05-10T20:42:23.976Z,12.96
2023-05-10T20:45:27.618Z,12.88
2023-05-10T20:48:32.623Z,12.83
2023-05-10T20:51:37.507Z,12.86
2023-05-10T20:54:40.929Z,12.60
2023-05-10T20:57:45.221Z,12.46
2023-05-10T21:00:49.075Z,12.59
2023-05-10T21:03:52.820Z,12.46
2023-05-10T21:06:58.076Z,12.29
2023-05-10T21:10:01.748Z,12.19
2023-05-10T21:13:05.371Z,12.25
2023-05-10T21:16:08.832Z,12.14
2023-05-10T21:19:12.954Z,12.00
2023-05-10T21:22:18.077Z,11.97
2023-05-10T21:25:21.716Z,11.91
2023-05-10T21:28:25.438Z,11.78
2023-05-10T21:31:28.954Z,11.72
2023-05-10T21:34:32.530Z,11.70
2023-05-10T21:37:37.658Z,11.67
2023-05-10T21:40:41.271Z,11.59
2023-05-10T21:43:44.968Z,11.57
2023-05-10T21:46:48.713Z,11.41
2023-05-10T21:49:52.318Z,11.26
2023-05-10T21:52:57.828Z,11.25
2023-05-10T21:56:03.996Z,11.26
2023-05-10T21:59:07.777Z,11.03
2023-05-10T22:02:11.380Z,11.02
2023-05-10T22:05:16.797Z,10.92
2023-05-10T22:08:21.672Z,10.86
2023-05-10T22:11:25.103Z,10.78
2023-05-10T22:14:28.767Z,10.76
2023-05-10T22:17:32.269Z,10.80
2023-05-10T22:20:35.779Z,10.75
2023-05-10T22:23:40.627Z,10.71
2023-05-10T22:26:44.216Z,10.71
2023-05-10T22:29:48.720Z,10.57
2023-05-10T22:32:52.212Z,10.62
2023-05-10T22:35:55.998Z,10.40
2023-05-10T22:39:00.826Z,10.22
2023-05-10T22:42:04.234Z,10.34
2023-05-10T22:45:09.225Z,10.13
2023-05-10T22:48:13.068Z,10.17
2023-05-10T22:51:16.628Z,10.11
2023-05-10T22:54:21.499Z,9.92
2023-05-10T22:57:25.017Z,9.80
2023-05-10T23:00:28.620Z,9.91
2023-05-10T23:03:32.090Z,9.83
2023-05-10T23:06:35.668Z,9.72
2023-05-10T23:09:40.629Z,9.90
2023-05-10T23:12:44.283Z,9.83
2023-05-10T23:15:48.426Z,9.77
2023-05-10T23:18:51.944Z,9.79
2023-05-10T23:21:55.615Z,9.85
2023-05-10T23:25:00.672Z,9.76
2023-05-10T23:28:04.347Z,9.96
2023-05-10T23:31:08.084Z,9.82
2023-05-10T23:34:11.928Z,9.88
2023-05-10T23:37:15.768Z,9.83
2023-05-10T23:40:21.333Z,9.86
2023-05-10T23:43:25.682Z,9.78
2023-05-10T23:46:29.348Z,9.77
2023-05-10T23:49:32.747Z,9.68
2023-05-10T23:52:36.315Z,9.65
2023-05-10T23:55:41.113Z,9.53
2023-05-10T23:58:46.484Z,9.50
